Terminal Aerodrome Forecast
Issued by NWS Portland, OR

Home | Current Version | Previous Version | Text Only | Print | Product List | Glossary On
Versions: 1 2 3 4 5 6 7 8 9 10 11 12 13 14 15 16 17 18 19
000
FTUS46 KPQR 220520
TAFAST
TAF
KAST 220520Z 2206/2306 VRB03KT P6SM SCT020 BKN080
     FM220900 VRB02KT 2SM BR SCT002
     FM221100 11003KT 1/2SM FG OVC002
     FM221600 12002KT 6SM BR SCT002 BKN035
     FM221900 28005KT P6SM SCT030
     FM222200 33008KT P6SM SCT030=

USA.gov is the U.S. government's official web portal to all federal, state and local government web resources and services.